createdAt,value
2018-01-12T00:01:41.053Z,13.50
2018-01-12T00:04:07.916Z,12.60
2018-01-12T00:06:34.763Z,13.53
2018-01-12T00:09:01.698Z,13.10
2018-01-12T00:11:28.640Z,12.73
2018-01-12T00:13:55.581Z,12.53
2018-01-12T00:16:22.436Z,12.47
2018-01-12T00:18:49.273Z,12.57
2018-01-12T00:21:16.221Z,11.37
2018-01-12T00:23:43.068Z,11.50
2018-01-12T00:26:09.916Z,11.20
2018-01-12T00:28:36.852Z,11.97
2018-01-12T00:31:03.792Z,12.47
2018-01-12T00:33:30.658Z,11.00
2018-01-12T00:35:57.585Z,12.00
2018-01-12T00:38:24.533Z,10.03
2018-01-12T00:40:51.383Z,11.20
2018-01-12T00:43:18.243Z,8.77
2018-01-12T00:45:45.094Z,7.40
2018-01-12T00:48:12.103Z,8.53
2018-01-12T00:50:38.959Z,9.87
2018-01-12T00:53:05.900Z,9.07
2018-01-12T00:55:32.855Z,10.60
2018-01-12T00:57:59.689Z,10.10
2018-01-12T01:00:26.641Z,12.07
2018-01-12T01:02:53.579Z,11.10
2018-01-12T01:05:20.435Z,11.60
2018-01-12T01:07:47.405Z,13.07
2018-01-12T01:10:14.249Z,11.97
2018-01-12T01:12:41.126Z,12.10
2018-01-12T01:15:08.389Z,12.53
2018-01-12T01:17:35.237Z,12.33
2018-01-12T01:20:02.077Z,14.20
2018-01-12T01:22:29.363Z,11.90
2018-01-12T01:24:56.309Z,12.53
2018-01-12T01:27:23.260Z,13.37
2018-01-12T01:29:50.199Z,13.37
2018-01-12T01:32:17.148Z,14.03
2018-01-12T01:34:43.993Z,14.47
2018-01-12T01:37:10.862Z,14.00
2018-01-12T01:39:37.794Z,16.20
2018-01-12T01:42:04.738Z,17.23
2018-01-12T01:44:31.681Z,17.93
2018-01-12T01:46:58.530Z,17.80
2018-01-12T01:49:25.373Z,16.33
2018-01-12T01:51:52.326Z,16.67
2018-01-12T01:54:19.259Z,17.20
2018-01-12T01:56:46.101Z,19.93
2018-01-12T01:59:13.047Z,17.33
2018-01-12T02:01:39.992Z,14.80
2018-01-12T02:04:06.947Z,15.83
2018-01-12T02:06:33.894Z,16.70
2018-01-12T02:09:00.854Z,15.80
2018-01-12T02:11:27.693Z,15.57
2018-01-12T02:13:54.624Z,17.00
2018-01-12T02:16:21.485Z,16.80
2018-01-12T02:18:48.414Z,17.37
2018-01-12T02:21:15.308Z,17.33
2018-01-12T02:23:42.621Z,19.90
2018-01-12T02:26:09.569Z,18.27
2018-01-12T02:28:36.521Z,18.33
2018-01-12T02:31:03.384Z,20.13
2018-01-12T02:33:30.306Z,14.37
2018-01-12T02:35:57.172Z,16.00
2018-01-12T02:38:24.092Z,14.50
2018-01-12T02:40:51.034Z,12.93
2018-01-12T02:43:17.900Z,11.10
2018-01-12T02:45:44.945Z,11.27
2018-01-12T02:48:11.805Z,11.70
2018-01-12T02:50:38.665Z,10.17
2018-01-12T02:53:05.977Z,10.57
2018-01-12T02:55:33.742Z,12.50
2018-01-12T02:58:00.585Z,10.13
2018-01-12T03:00:27.530Z,10.30
2018-01-12T03:02:54.385Z,11.03
2018-01-12T03:05:21.317Z,10.23
2018-01-12T03:07:48.265Z,10.37
2018-01-12T03:10:15.216Z,11.10
2018-01-12T03:12:42.152Z,10.77
2018-01-12T03:15:09.105Z,11.40
2018-01-12T03:17:36.049Z,10.37
2018-01-12T03:20:03.093Z,9.57
2018-01-12T03:22:30.051Z,9.70
2018-01-12T03:24:56.899Z,11.53
2018-01-12T03:27:23.833Z,10.90
2018-01-12T03:29:50.776Z,11.80
2018-01-12T03:32:17.682Z,11.03
2018-01-12T03:34:44.483Z,10.50
2018-01-12T03:37:11.412Z,11.50
2018-01-12T03:39:38.284Z,12.00
2018-01-12T03:42:05.211Z,10.97
2018-01-12T03:44:32.049Z,11.00
2018-01-12T03:46:58.908Z,10.63
2018-01-12T03:49:25.854Z,11.40
2018-01-12T03:51:52.718Z,12.50
2018-01-12T03:54:19.575Z,12.03
2018-01-12T03:56:46.571Z,11.43
2018-01-12T03:59:13.421Z,9.83
2018-01-12T04:01:40.265Z,10.80
2018-01-12T04:04:07.133Z,11.83
2018-01-12T04:06:33.977Z,10.37
2018-01-12T04:09:00.904Z,10.63
2018-01-12T04:11:27.840Z,10.63
2018-01-12T04:13:54.701Z,11.83
2018-01-12T04:16:21.644Z,12.93
2018-01-12T04:18:48.585Z,12.40
2018-01-12T04:21:15.537Z,12.57
2018-01-12T04:23:42.588Z,12.60
2018-01-12T04:26:09.429Z,13.90
2018-01-12T04:28:36.375Z,13.67
2018-01-12T04:31:03.338Z,11.90
2018-01-12T04:33:30.261Z,13.50
2018-01-12T04:35:57.208Z,12.60
2018-01-12T04:38:24.084Z,14.27
2018-01-12T04:40:50.928Z,14.50
2018-01-12T04:43:17.774Z,14.80
2018-01-12T04:45:44.636Z,14.60
2018-01-12T04:48:11.889Z,14.20
2018-01-12T04:50:39.166Z,13.00
2018-01-12T04:53:06.050Z,14.57
2018-01-12T04:55:32.905Z,13.63
2018-01-12T04:57:59.833Z,13.40
2018-01-12T05:00:26.723Z,12.63
2018-01-12T05:02:53.989Z,13.10
2018-01-12T05:05:21.284Z,12.87
2018-01-12T05:07:48.233Z,14.93
2018-01-12T05:10:15.104Z,13.77
2018-01-12T05:12:41.974Z,15.90
2018-01-12T05:15:09.277Z,14.50
2018-01-12T05:17:36.226Z,14.23
2018-01-12T05:20:03.173Z,13.23
2018-01-12T05:22:30.122Z,14.80
2018-01-12T05:24:57.060Z,14.07
2018-01-12T05:27:24.022Z,16.30
2018-01-12T05:29:50.873Z,16.33
2018-01-12T05:32:17.750Z,16.50
2018-01-12T05:34:45.100Z,18.03
2018-01-12T05:37:12.409Z,14.90
2018-01-12T05:39:39.358Z,19.07
2018-01-12T05:42:06.306Z,19.80
2018-01-12T05:44:33.172Z,20.20
2018-01-12T05:47:00.046Z,21.30
2018-01-12T05:49:27.342Z,20.43
2018-01-12T05:51:54.205Z,20.37
2018-01-12T05:54:21.137Z,20.60
2018-01-12T05:56:48.092Z,21.17
2018-01-12T05:59:15.157Z,22.20
2018-01-12T06:01:53.815Z,24.07
2018-01-12T06:07:22.259Z,24.77
2018-01-12T06:09:49.205Z,22.50
2018-01-12T06:12:16.137Z,22.40
2018-01-12T06:14:43.097Z,24.27
2018-01-12T06:17:13.181Z,23.33
2018-01-12T06:19:40.025Z,23.60
2018-01-12T06:22:07.297Z,22.77
2018-01-12T06:24:34.173Z,22.10
2018-01-12T06:27:01.106Z,23.53
2018-01-12T06:29:27.949Z,24.20
2018-01-12T06:31:54.812Z,21.10
2018-01-12T06:34:21.670Z,22.60
2018-01-12T06:36:48.576Z,22.57
2018-01-12T06:39:15.520Z,24.20
2018-01-12T06:41:42.401Z,23.27
2018-01-12T06:44:09.253Z,25.97
2018-01-12T06:46:36.160Z,22.93
2018-01-12T06:49:03.201Z,22.13
2018-01-12T06:51:30.057Z,21.60
2018-01-12T06:53:57.000Z,22.77
2018-01-12T06:56:23.844Z,25.30
2018-01-12T06:58:50.788Z,21.53
2018-01-12T07:01:17.723Z,21.37
2018-01-12T07:03:44.581Z,22.90
2018-01-12T07:06:11.535Z,25.03
2018-01-12T07:08:38.482Z,24.87
2018-01-12T07:11:05.434Z,22.97
2018-01-12T07:13:32.383Z,23.87
2018-01-12T07:15:59.308Z,23.77
2018-01-12T07:18:26.266Z,24.43
2018-01-12T07:21:04.985Z,21.80
2018-01-12T07:23:47.420Z,22.43
2018-01-12T07:26:14.345Z,23.70
2018-01-12T07:28:41.292Z,23.40
2018-01-12T07:31:08.235Z,23.00
2018-01-12T07:33:35.202Z,22.50
2018-01-12T07:36:02.131Z,23.77
2018-01-12T07:38:29.077Z,28.00
2018-01-12T07:40:55.936Z,20.57
2018-01-12T07:43:22.813Z,24.67
2018-01-12T07:45:50.049Z,20.93
2018-01-12T07:48:17.065Z,23.37
2018-01-12T07:50:44.012Z,22.60
2018-01-12T07:53:10.841Z,27.33
2018-01-12T07:55:37.801Z,24.30
2018-01-12T07:58:04.841Z,25.13
2018-01-12T08:00:31.686Z,24.27
2018-01-12T08:02:58.753Z,26.13
2018-01-12T08:05:25.689Z,24.57
2018-01-12T08:07:52.653Z,23.47
2018-01-12T08:10:19.603Z,23.80
2018-01-12T08:12:46.528Z,22.30
2018-01-12T08:15:13.365Z,21.80
2018-01-12T08:17:40.216Z,22.43
2018-01-12T08:20:07.082Z,22.63
2018-01-12T08:22:34.012Z,22.63
2018-01-12T08:25:00.952Z,22.23
2018-01-12T08:27:27.826Z,22.13
2018-01-12T08:29:54.712Z,23.00
2018-01-12T08:32:21.634Z,23.17
2018-01-12T08:34:48.436Z,22.23
2018-01-12T08:37:15.476Z,21.50
2018-01-12T08:39:42.329Z,22.90
2018-01-12T08:42:09.286Z,25.43
2018-01-12T08:44:36.137Z,24.03
2018-01-12T08:47:03.034Z,24.00
2018-01-12T08:49:29.921Z,24.20
2018-01-12T08:51:56.808Z,23.33
2018-01-12T08:54:24.106Z,23.80
2018-01-12T08:56:51.072Z,23.13
2018-01-12T08:59:18.004Z,23.23
2018-01-12T09:01:44.875Z,23.07
2018-01-12T09:04:11.740Z,23.17
2018-01-12T09:06:39.041Z,22.90
2018-01-12T09:09:05.989Z,22.50
2018-01-12T09:11:32.845Z,24.67
2018-01-12T09:16:54.676Z,23.57
2018-01-12T09:19:28.546Z,24.23
2018-01-12T09:21:56.200Z,23.90
2018-01-12T09:24:23.465Z,22.60
2018-01-12T09:26:50.755Z,22.70
2018-01-12T09:29:17.616Z,24.97
2018-01-12T09:31:44.473Z,24.17
2018-01-12T09:34:23.246Z,24.83
2018-01-12T09:36:50.212Z,23.03
2018-01-12T09:39:28.840Z,21.20
2018-01-12T09:41:55.788Z,22.77
2018-01-12T09:44:22.633Z,23.57
2018-01-12T09:46:50.286Z,23.10
2018-01-12T09:49:17.139Z,23.80
2018-01-12T09:51:44.081Z,26.70
2018-01-12T09:54:10.929Z,27.83
2018-01-12T09:56:37.781Z,25.50
2018-01-12T09:59:04.632Z,24.90
2018-01-12T10:01:40.279Z,24.23
2018-01-12T10:04:07.213Z,25.13
2018-01-12T10:06:34.082Z,24.10
2018-01-12T10:09:01.012Z,25.53
2018-01-12T10:11:27.953Z,24.70
2018-01-12T10:13:54.912Z,24.70
2018-01-12T10:16:21.844Z,24.87
2018-01-12T10:18:53.385Z,27.67
2018-01-12T10:21:32.209Z,27.23
2018-01-12T10:23:59.079Z,25.90
2018-01-12T10:26:26.032Z,28.63
2018-01-12T10:29:04.891Z,25.70
2018-01-12T10:34:44.164Z,24.20
2018-01-12T10:37:11.052Z,25.03
2018-01-12T10:39:50.069Z,25.73
2018-01-12T10:42:16.920Z,25.53
2018-01-12T10:44:43.770Z,26.00
2018-01-12T10:47:23.276Z,27.30
2018-01-12T10:52:48.727Z,30.10
2018-01-12T10:55:15.579Z,27.40
2018-01-12T10:57:42.840Z,28.97
2018-01-12T11:00:21.552Z,27.80
2018-01-12T11:02:48.501Z,27.63
2018-01-12T11:05:15.460Z,30.20
2018-01-12T11:07:42.380Z,28.87
2018-01-12T11:10:09.240Z,27.57
2018-01-12T11:12:36.092Z,27.27
2018-01-12T11:15:02.950Z,30.80
2018-01-12T11:17:30.064Z,33.40
2018-01-12T11:19:56.917Z,31.27
2018-01-12T11:22:23.786Z,31.40
2018-01-12T11:24:50.625Z,29.47
2018-01-12T11:27:17.514Z,27.80
2018-01-12T11:29:44.814Z,30.20
2018-01-12T11:32:11.760Z,29.10
2018-01-12T11:34:38.612Z,30.17
2018-01-12T11:37:05.484Z,27.33
2018-01-12T11:39:32.400Z,26.37
2018-01-12T11:41:59.254Z,26.00
2018-01-12T11:44:26.201Z,26.20
2018-01-12T11:46:53.056Z,25.33
2018-01-12T11:49:19.968Z,26.20
2018-01-12T11:51:46.908Z,22.83
2018-01-12T11:54:13.752Z,26.17
2018-01-12T11:56:40.721Z,24.00
2018-01-12T11:59:07.656Z,24.80
2018-01-12T12:01:34.521Z,27.07
2018-01-12T12:04:01.534Z,27.30
2018-01-12T12:06:28.370Z,30.70
2018-01-12T12:08:55.331Z,27.67
2018-01-12T12:11:22.286Z,29.50
2018-01-12T12:13:49.149Z,29.23
2018-01-12T12:16:16.008Z,28.10
2018-01-12T12:18:42.920Z,27.43
2018-01-12T12:21:09.865Z,29.63
2018-01-12T12:23:36.721Z,29.43
2018-01-12T12:26:03.660Z,29.77
2018-01-12T12:28:30.603Z,30.17
2018-01-12T12:30:57.481Z,37.13
2018-01-12T12:33:24.397Z,33.70
2018-01-12T12:35:51.337Z,36.10
2018-01-12T12:38:18.288Z,35.17
2018-01-12T12:40:45.166Z,35.90
2018-01-12T12:43:12.029Z,42.10
2018-01-12T12:45:39.297Z,43.93
2018-01-12T12:48:06.182Z,44.83
2018-01-12T12:50:33.209Z,45.63
2018-01-12T12:53:00.460Z,35.63
2018-01-12T12:55:27.355Z,33.00
2018-01-12T12:57:54.260Z,34.57
2018-01-12T13:00:21.237Z,28.93
2018-01-12T13:02:48.084Z,27.17
2018-01-12T13:05:15.005Z,29.47
2018-01-12T13:07:42.038Z,30.77
2018-01-12T13:12:26.583Z,24.93
2018-01-12T13:14:53.824Z,27.30
2018-01-12T13:17:20.724Z,25.13
2018-01-12T13:19:47.576Z,24.73
2018-01-12T13:22:14.475Z,24.40
2018-01-12T13:24:41.718Z,27.87
2018-01-12T13:27:09.025Z,27.67
2018-01-12T13:29:35.977Z,27.23
2018-01-12T13:32:02.904Z,27.83
2018-01-12T13:34:29.781Z,27.70
2018-01-12T13:36:56.709Z,26.93
2018-01-12T13:39:23.553Z,26.13
2018-01-12T13:41:50.501Z,25.13
2018-01-12T13:44:17.361Z,26.90
2018-01-12T13:46:44.284Z,24.73
2018-01-12T13:49:11.265Z,24.83
2018-01-12T13:51:38.076Z,26.37
2018-01-12T13:54:05.011Z,25.33
2018-01-12T13:56:31.982Z,24.43
2018-01-12T13:58:58.933Z,24.37
2018-01-12T14:01:25.868Z,24.33
2018-01-12T14:03:52.768Z,23.07
2018-01-12T14:06:20.012Z,23.27
2018-01-12T14:08:47.322Z,22.30
2018-01-12T14:11:14.187Z,21.63
2018-01-12T14:13:41.104Z,22.00
2018-01-12T14:16:07.990Z,24.47
2018-01-12T14:18:34.893Z,22.87
2018-01-12T14:21:01.752Z,23.47
2018-01-12T14:23:28.704Z,21.00
2018-01-12T14:25:55.548Z,23.40
2018-01-12T14:28:22.498Z,22.03
2018-01-12T14:30:49.373Z,25.20
2018-01-12T14:33:16.611Z,22.33
2018-01-12T14:35:43.516Z,23.13
2018-01-12T14:38:10.463Z,22.93
2018-01-12T14:40:37.325Z,24.43
2018-01-12T14:43:04.181Z,23.80
2018-01-12T14:45:31.041Z,29.03
2018-01-12T14:47:57.940Z,27.70
2018-01-12T14:50:24.812Z,26.90
2018-01-12T14:52:51.644Z,24.90
2018-01-12T14:55:18.580Z,29.03
2018-01-12T14:57:45.434Z,28.50
2018-01-12T15:00:12.462Z,29.07
2018-01-12T15:02:39.292Z,30.27
2018-01-12T15:05:06.373Z,30.10
2018-01-12T15:07:33.267Z,33.90
2018-01-12T15:10:00.247Z,34.07
2018-01-12T15:12:27.073Z,32.37
2018-01-12T15:14:53.940Z,38.17
2018-01-12T15:17:20.884Z,31.13
2018-01-12T15:19:47.754Z,30.73
2018-01-12T15:22:14.593Z,32.47
2018-01-12T15:24:41.446Z,33.83
2018-01-12T15:27:08.380Z,33.83
2018-01-12T15:29:35.320Z,33.93
2018-01-12T15:32:02.166Z,35.07
2018-01-12T15:34:29.111Z,34.07
2018-01-12T15:36:55.988Z,37.33
2018-01-12T15:39:22.812Z,39.53
2018-01-12T15:41:49.745Z,35.00
2018-01-12T15:44:16.588Z,34.23
2018-01-12T15:46:43.532Z,34.00
2018-01-12T15:49:10.392Z,35.87
2018-01-12T15:51:37.312Z,33.27
2018-01-12T15:54:04.260Z,30.70
2018-01-12T15:56:31.128Z,33.80
2018-01-12T15:58:57.981Z,34.43
2018-01-12T16:03:42.512Z,30.90
2018-01-12T16:06:09.388Z,31.53
2018-01-12T16:08:36.310Z,29.70
2018-01-12T16:11:03.168Z,29.60
2018-01-12T16:13:30.116Z,32.33
2018-01-12T16:15:56.990Z,31.53
2018-01-12T16:18:23.862Z,27.60
2018-01-12T16:20:51.152Z,25.53
2018-01-12T16:23:18.195Z,28.70
2018-01-12T16:25:45.044Z,27.20
2018-01-12T16:28:11.985Z,27.33
2018-01-12T16:30:39.252Z,26.83
2018-01-12T16:33:06.092Z,25.10
2018-01-12T16:35:33.044Z,25.67
2018-01-12T16:37:59.905Z,26.77
2018-01-12T16:40:26.828Z,29.43
2018-01-12T16:42:53.777Z,27.27
2018-01-12T16:45:20.721Z,25.83
2018-01-12T16:47:47.681Z,30.43
2018-01-12T16:50:14.651Z,25.77
2018-01-12T16:52:41.589Z,25.60
2018-01-12T16:55:08.517Z,25.53
2018-01-12T16:57:35.366Z,24.20
2018-01-12T17:00:02.245Z,25.30
2018-01-12T17:02:29.555Z,24.93
2018-01-12T17:04:56.415Z,26.63
2018-01-12T17:07:23.355Z,26.57
2018-01-12T17:09:50.281Z,26.67
2018-01-12T17:12:17.105Z,26.50
2018-01-12T17:14:43.972Z,27.80
2018-01-12T17:17:10.829Z,27.73
2018-01-12T17:19:37.768Z,26.03
2018-01-12T17:22:04.817Z,26.43
2018-01-12T17:24:31.795Z,26.13
2018-01-12T17:26:58.649Z,29.77
2018-01-12T17:29:25.500Z,25.83
2018-01-12T17:31:52.818Z,27.87
2018-01-12T17:34:19.687Z,29.50
2018-01-12T17:36:46.593Z,27.97
2018-01-12T17:39:13.544Z,28.33
2018-01-12T17:41:40.493Z,28.23
2018-01-12T17:44:07.360Z,30.10
2018-01-12T17:46:34.285Z,27.17
2018-01-12T17:49:01.157Z,30.27
2018-01-12T17:51:28.100Z,26.80
2018-01-12T17:53:55.007Z,28.90
2018-01-12T17:56:21.844Z,29.90
2018-01-12T17:58:48.708Z,30.97
2018-01-12T18:01:15.656Z,28.17
2018-01-12T18:03:42.499Z,29.20
2018-01-12T18:06:09.379Z,31.97
2018-01-12T18:08:36.295Z,32.20
2018-01-12T18:11:03.144Z,31.03
2018-01-12T18:13:30.004Z,30.70
2018-01-12T18:15:56.848Z,30.30
2018-01-12T18:18:23.716Z,33.27
2018-01-12T18:20:50.956Z,32.47
2018-01-12T18:23:17.870Z,32.97
2018-01-12T18:25:44.810Z,37.60
2018-01-12T18:28:11.777Z,36.10
2018-01-12T18:30:38.692Z,34.57
2018-01-12T18:33:05.740Z,34.83
2018-01-12T18:35:32.956Z,36.13
2018-01-12T18:37:59.846Z,31.83
2018-01-12T18:40:26.829Z,36.50
2018-01-12T18:42:53.748Z,32.47
2018-01-12T18:45:20.698Z,35.93
2018-01-12T18:47:47.641Z,37.63
2018-01-12T18:50:14.584Z,35.43
2018-01-12T18:52:41.476Z,35.63
2018-01-12T18:55:08.306Z,34.63
2018-01-12T18:57:35.177Z,34.70
2018-01-12T19:00:02.008Z,36.70
2018-01-12T19:02:29.312Z,35.43
2018-01-12T19:04:56.267Z,39.37
2018-01-12T19:07:23.197Z,38.23
2018-01-12T19:09:50.153Z,39.90
2018-01-12T19:12:17.096Z,38.40
2018-01-12T19:14:43.944Z,41.67
2018-01-12T19:17:10.988Z,38.50
2018-01-12T19:19:38.030Z,47.90
2018-01-12T19:22:04.976Z,40.67
2018-01-12T19:24:31.838Z,47.13
2018-01-12T19:26:58.672Z,44.67
2018-01-12T19:29:25.636Z,44.53
2018-01-12T19:31:52.575Z,40.00
2018-01-12T19:34:19.518Z,41.53
2018-01-12T19:36:46.387Z,44.23
2018-01-12T19:39:13.236Z,38.37
2018-01-12T19:41:40.165Z,44.40
2018-01-12T19:44:07.097Z,40.77
2018-01-12T19:46:34.045Z,38.40
2018-01-12T19:49:00.887Z,38.37
2018-01-12T19:51:27.737Z,41.03
2018-01-12T19:53:54.681Z,41.77
2018-01-12T19:56:21.634Z,41.57
2018-01-12T19:58:48.488Z,36.40
2018-01-12T20:01:15.417Z,35.80
2018-01-12T20:03:42.388Z,43.37
2018-01-12T20:06:09.200Z,41.73
2018-01-12T20:08:36.249Z,42.87
2018-01-12T20:11:03.200Z,37.30
2018-01-12T20:13:30.154Z,42.30
2018-01-12T20:15:57.018Z,40.40
2018-01-12T20:18:24.028Z,38.73
2018-01-12T20:20:50.870Z,37.53
2018-01-12T20:23:17.818Z,37.50
2018-01-12T20:25:44.645Z,37.67
2018-01-12T20:28:11.628Z,39.30
2018-01-12T20:30:38.489Z,31.33
2018-01-12T20:33:05.436Z,33.13
2018-01-12T20:35:32.354Z,35.10
2018-01-12T20:37:59.317Z,30.03
2018-01-12T20:40:26.197Z,32.10
2018-01-12T20:42:53.088Z,31.10
2018-01-12T20:45:19.953Z,33.60
2018-01-12T20:47:46.792Z,28.20
2018-01-12T20:50:13.733Z,29.97
2018-01-12T20:52:40.680Z,31.30
2018-01-12T20:55:07.628Z,30.00
2018-01-12T20:57:34.463Z,32.97
2018-01-12T21:00:01.412Z,29.87
2018-01-12T21:02:28.256Z,31.33
2018-01-12T21:04:55.205Z,28.00
2018-01-12T21:07:22.152Z,30.30
2018-01-12T21:09:49.100Z,33.80
2018-01-12T21:12:15.969Z,30.13
2018-01-12T21:14:42.887Z,27.83
2018-01-12T21:17:09.841Z,28.70
2018-01-12T21:19:36.700Z,31.30
2018-01-12T21:22:03.639Z,29.13
2018-01-12T21:24:30.564Z,30.90
2018-01-12T21:26:57.409Z,32.83
2018-01-12T21:29:24.271Z,28.83
2018-01-12T21:31:51.208Z,26.97
2018-01-12T21:34:18.152Z,29.97
2018-01-12T21:36:45.008Z,29.47
2018-01-12T21:39:11.873Z,28.47
2018-01-12T21:41:38.709Z,26.37
2018-01-12T21:44:08.813Z,28.90
2018-01-12T21:46:35.757Z,27.63
2018-01-12T21:49:02.602Z,28.80
2018-01-12T21:51:29.535Z,31.37
2018-01-12T21:53:56.404Z,33.83
2018-01-12T21:56:23.342Z,31.90
2018-01-12T21:58:50.236Z,33.63
2018-01-12T22:01:17.044Z,28.80
2018-01-12T22:03:43.956Z,32.57
2018-01-12T22:06:10.811Z,30.80
2018-01-12T22:08:37.764Z,31.40
2018-01-12T22:11:04.639Z,33.20
2018-01-12T22:13:31.484Z,32.73
2018-01-12T22:15:58.404Z,31.57
2018-01-12T22:18:25.644Z,27.87
2018-01-12T22:20:52.895Z,28.50
2018-01-12T22:23:19.856Z,30.37
2018-01-12T22:25:46.800Z,30.60
2018-01-12T22:28:13.696Z,30.20
2018-01-12T22:30:40.536Z,30.70
2018-01-12T22:33:07.788Z,32.50
2018-01-12T22:35:35.098Z,28.97
2018-01-12T22:38:01.953Z,29.97
2018-01-12T22:40:28.808Z,30.53
2018-01-12T22:42:55.737Z,28.67
2018-01-12T22:45:22.779Z,31.37
2018-01-12T22:47:49.739Z,29.60
2018-01-12T22:50:16.672Z,29.77
2018-01-12T22:52:43.816Z,35.10
2018-01-12T22:55:10.756Z,32.67
2018-01-12T22:57:37.910Z,29.97
2018-01-12T23:00:04.861Z,32.70
2018-01-12T23:02:32.110Z,29.90
2018-01-12T23:04:59.141Z,29.87
2018-01-12T23:07:26.131Z,37.57
2018-01-12T23:09:53.070Z,37.00
2018-01-12T23:12:20.013Z,32.57
2018-01-12T23:14:46.961Z,35.70
2018-01-12T23:17:13.833Z,35.73
2018-01-12T23:19:40.749Z,39.13
2018-01-12T23:22:07.625Z,35.90
2018-01-12T23:24:34.504Z,31.83
2018-01-12T23:27:01.344Z,31.43
2018-01-12T23:29:28.191Z,37.30
2018-01-12T23:31:55.456Z,33.43
2018-01-12T23:34:22.324Z,36.90
2018-01-12T23:36:49.277Z,44.13
2018-01-12T23:39:16.221Z,40.20
2018-01-12T23:41:43.085Z,33.97
2018-01-12T23:44:10.013Z,40.23
2018-01-12T23:46:36.992Z,44.60
2018-01-12T23:49:03.897Z,39.37
2018-01-12T23:51:30.848Z,39.93
2018-01-12T23:53:57.715Z,42.80
2018-01-12T23:56:24.632Z,40.33
2018-01-12T23:58:51.594Z,36.80
